メインページ
METAR-TAF:

METAR-TAF

空港 :

ノーマン・マンレー国際空港

キングストン, ジャマイカ

緯度: 17-56N, 経度: 076-47W, 海抜: 3m

現時点の気象観測

当レポートは53分前の07:00(UTC)に作成
西/南西の風 3kt
気温 29°C
湿度 74%
気圧 1014 hPa
視程10km以上
高度2200ftの雲はほとんどない

METAR: MKJP 190700Z 25003KT 9999 FEW022 29/24 Q1014

時間: 02:53 (07:53 UTC)

予報

当レポートは2時間38分前の05:15(UTC)に作成
予報は19日の 06時(UTC)から 20日の 06時(UTC)まで有効
北/北西の風 6kt
視程10km以上
高度2200ftの雲はほとんどない
19日の 14時(UTC)から 19日の 16時(UTC)まで徐々に
南東の風 24kt
高度2200ftの雲はほとんどない
高度2400ftの雲はほとんどない, 積乱雲.
20日の 04時(UTC)から 20日の 06時(UTC)まで徐々に
北/北西の風 6kt
高度2200ftの雲はほとんどない

TAF: MKJP 190515Z 1906/2006 34006KT 9999 FEW022 BECMG 1914/1916 14024KT FEW022 FEW024CB BECMG 2004/2006 34006KT FEW022

4,000以上の空港の気象観測と天気予報(METAR報とTAF報)

利用可能な観測所は地図上に黄色い丸と赤い丸で示す。

丸の上にカーソルを重ねると観測所名を参照できる。

次にクリックすると気象観測と天気予報を参照できる。

マップの切り替え:黒色「×」印の緑ボタンをクリックして拡大、「-」印の緑ボタンをクリックして縮小、緑色の三角印をクリックして隣りの地図に切り替え


METAR-TAF: